sensor_id;sensor_type;location;lat;lon;timestamp;P1;durP1;ratioP1;P2;durP2;ratioP2
1390;SDS011;690;51.454;7.194;2023-03-13T00:00:00;10.50;;;3.63;;
1390;SDS011;690;51.454;7.194;2023-03-13T00:02:26;14.60;;;3.00;;
1390;SDS011;690;51.454;7.194;2023-03-13T00:04:53;14.57;;;3.63;;
1390;SDS011;690;51.454;7.194;2023-03-13T00:07:20;17.53;;;4.37;;
1390;SDS011;690;51.454;7.194;2023-03-13T00:09:49;16.37;;;3.70;;
1390;SDS011;690;51.454;7.194;2023-03-13T00:12:16;16.87;;;4.50;;
1390;SDS011;690;51.454;7.194;2023-03-13T00:14:43;26.80;;;4.37;;
1390;SDS011;690;51.454;7.194;2023-03-13T00:17:10;13.53;;;3.83;;
1390;SDS011;690;51.454;7.194;2023-03-13T00:19:36;16.43;;;3.63;;
1390;SDS011;690;51.454;7.194;2023-03-13T00:22:03;24.13;;;5.90;;
1390;SDS011;690;51.454;7.194;2023-03-13T00:24:30;13.80;;;3.60;;
1390;SDS011;690;51.454;7.194;2023-03-13T00:26:59;22.13;;;4.70;;
1390;SDS011;690;51.454;7.194;2023-03-13T00:29:27;15.80;;;4.23;;
1390;SDS011;690;51.454;7.194;2023-03-13T00:31:54;21.03;;;4.50;;
1390;SDS011;690;51.454;7.194;2023-03-13T00:34:21;14.87;;;4.47;;
1390;SDS011;690;51.454;7.194;2023-03-13T00:36:48;13.83;;;3.43;;
1390;SDS011;690;51.454;7.194;2023-03-13T00:39:14;19.90;;;4.43;;
1390;SDS011;690;51.454;7.194;2023-03-13T00:41:41;20.63;;;3.97;;
1390;SDS011;690;51.454;7.194;2023-03-13T00:44:10;25.93;;;4.30;;
1390;SDS011;690;51.454;7.194;2023-03-13T00:46:37;13.03;;;4.10;;
1390;SDS011;690;51.454;7.194;2023-03-13T00:49:04;12.07;;;3.40;;
1390;SDS011;690;51.454;7.194;2023-03-13T00:51:31;17.73;;;4.00;;
1390;SDS011;690;51.454;7.194;2023-03-13T00:53:58;12.97;;;3.17;;
1390;SDS011;690;51.454;7.194;2023-03-13T00:56:26;10.07;;;3.40;;
1390;SDS011;690;51.454;7.194;2023-03-13T00:58:53;18.03;;;3.77;;
1390;SDS011;690;51.454;7.194;2023-03-13T01:01:25;12.60;;;4.03;;
1390;SDS011;690;51.454;7.194;2023-03-13T01:03:53;19.00;;;5.20;;
1390;SDS011;690;51.454;7.194;2023-03-13T01:06:22;22.67;;;4.20;;
1390;SDS011;690;51.454;7.194;2023-03-13T01:08:51;8.93;;;3.47;;
1390;SDS011;690;51.454;7.194;2023-03-13T01:11:19;11.27;;;3.30;;
1390;SDS011;690;51.454;7.194;2023-03-13T01:13:47;18.50;;;3.80;;
1390;SDS011;690;51.454;7.194;2023-03-13T01:16:15;11.30;;;3.17;;
1390;SDS011;690;51.454;7.194;2023-03-13T01:18:46;14.67;;;4.20;;
1390;SDS011;690;51.454;7.194;2023-03-13T01:21:14;11.80;;;3.50;;
1390;SDS011;690;51.454;7.194;2023-03-13T01:23:43;11.67;;;4.50;;
1390;SDS011;690;51.454;7.194;2023-03-13T01:26:11;16.63;;;3.60;;
1390;SDS011;690;51.454;7.194;2023-03-13T01:28:39;11.47;;;3.80;;
1390;SDS011;690;51.454;7.194;2023-03-13T01:31:09;17.13;;;4.07;;
1390;SDS011;690;51.454;7.194;2023-03-13T01:33:39;13.97;;;3.90;;
1390;SDS011;690;51.454;7.194;2023-03-13T01:36:08;16.30;;;4.13;;
1390;SDS011;690;51.454;7.194;2023-03-13T01:38:35;18.00;;;4.43;;
1390;SDS011;690;51.454;7.194;2023-03-13T01:41:03;16.30;;;4.80;;
1390;SDS011;690;51.454;7.194;2023-03-13T01:43:31;9.93;;;3.90;;
1390;SDS011;690;51.454;7.194;2023-03-13T01:46:01;12.20;;;3.63;;
1390;SDS011;690;51.454;7.194;2023-03-13T01:48:33;10.63;;;3.73;;
1390;SDS011;690;51.454;7.194;2023-03-13T01:51:05;16.43;;;3.87;;
1390;SDS011;690;51.454;7.194;2023-03-13T01:53:37;12.60;;;3.70;;
1390;SDS011;690;51.454;7.194;2023-03-13T01:56:07;15.97;;;4.87;;
1390;SDS011;690;51.454;7.194;2023-03-13T01:58:39;10.83;;;3.57;;
1390;SDS011;690;51.454;7.194;2023-03-13T02:01:06;16.97;;;4.23;;
1390;SDS011;690;51.454;7.194;2023-03-13T02:03:34;9.73;;;3.30;;
1390;SDS011;690;51.454;7.194;2023-03-13T02:06:03;12.80;;;3.20;;
1390;SDS011;690;51.454;7.194;2023-03-13T02:08:33;14.73;;;4.13;;
1390;SDS011;690;51.454;7.194;2023-03-13T02:11:06;13.67;;;3.73;;
1390;SDS011;690;51.454;7.194;2023-03-13T02:13:38;20.00;;;4.23;;
1390;SDS011;690;51.454;7.194;2023-03-13T02:16:05;10.37;;;3.53;;
1390;SDS011;690;51.454;7.194;2023-03-13T02:18:34;10.30;;;3.33;;
1390;SDS011;690;51.454;7.194;2023-03-13T02:21:05;14.07;;;4.00;;
1390;SDS011;690;51.454;7.194;2023-03-13T02:23:40;10.83;;;3.20;;
1390;SDS011;690;51.454;7.194;2023-03-13T02:26:15;8.70;;;3.93;;
1390;SDS011;690;51.454;7.194;2023-03-13T02:28:42;15.53;;;3.33;;
1390;SDS011;690;51.454;7.194;2023-03-13T02:31:09;12.27;;;3.70;;
1390;SDS011;690;51.454;7.194;2023-03-13T02:33:38;14.17;;;3.80;;
1390;SDS011;690;51.454;7.194;2023-03-13T02:36:06;13.60;;;4.37;;
1390;SDS011;690;51.454;7.194;2023-03-13T02:38:36;12.87;;;3.97;;
1390;SDS011;690;51.454;7.194;2023-03-13T02:41:05;12.70;;;3.53;;
1390;SDS011;690;51.454;7.194;2023-03-13T02:43:35;10.47;;;3.43;;
1390;SDS011;690;51.454;7.194;2023-03-13T02:46:04;12.60;;;3.93;;
1390;SDS011;690;51.454;7.194;2023-03-13T02:48:34;14.10;;;3.77;;
1390;SDS011;690;51.454;7.194;2023-03-13T02:51:04;16.57;;;4.73;;
1390;SDS011;690;51.454;7.194;2023-03-13T02:53:34;14.17;;;4.73;;
1390;SDS011;690;51.454;7.194;2023-03-13T02:56:03;13.00;;;4.67;;
1390;SDS011;690;51.454;7.194;2023-03-13T02:58:36;16.80;;;4.03;;
1390;SDS011;690;51.454;7.194;2023-03-13T03:01:08;13.67;;;4.33;;
1390;SDS011;690;51.454;7.194;2023-03-13T03:03:34;14.30;;;3.80;;
1390;SDS011;690;51.454;7.194;2023-03-13T03:06:02;14.77;;;4.90;;
1390;SDS011;690;51.454;7.194;2023-03-13T03:08:30;20.07;;;5.70;;
1390;SDS011;690;51.454;7.194;2023-03-13T03:10:57;12.67;;;3.47;;
1390;SDS011;690;51.454;7.194;2023-03-13T03:13:24;7.53;;;3.20;;
1390;SDS011;690;51.454;7.194;2023-03-13T03:15:53;16.93;;;3.60;;
1390;SDS011;690;51.454;7.194;2023-03-13T03:18:19;17.50;;;4.70;;
1390;SDS011;690;51.454;7.194;2023-03-13T03:20:46;9.93;;;3.10;;
1390;SDS011;690;51.454;7.194;2023-03-13T03:23:13;10.10;;;3.30;;
1390;SDS011;690;51.454;7.194;2023-03-13T03:25:40;13.20;;;3.57;;
1390;SDS011;690;51.454;7.194;2023-03-13T03:28:07;8.57;;;2.93;;
1390;SDS011;690;51.454;7.194;2023-03-13T03:30:34;15.70;;;3.40;;
1390;SDS011;690;51.454;7.194;2023-03-13T03:33:03;13.40;;;3.50;;
1390;SDS011;690;51.454;7.194;2023-03-13T03:35:29;12.23;;;2.90;;
1390;SDS011;690;51.454;7.194;2023-03-13T03:37:58;15.87;;;3.10;;
1390;SDS011;690;51.454;7.194;2023-03-13T03:40:25;8.03;;;3.00;;
1390;SDS011;690;51.454;7.194;2023-03-13T03:42:52;6.07;;;2.73;;
1390;SDS011;690;51.454;7.194;2023-03-13T03:45:19;11.37;;;2.60;;
1390;SDS011;690;51.454;7.194;2023-03-13T03:47:46;6.43;;;4.90;;
1390;SDS011;690;51.454;7.194;2023-03-13T03:50:14;4.77;;;2.87;;
1390;SDS011;690;51.454;7.194;2023-03-13T03:52:41;9.67;;;3.27;;
1390;SDS011;690;51.454;7.194;2023-03-13T03:55:08;9.53;;;3.10;;
1390;SDS011;690;51.454;7.194;2023-03-13T03:57:35;4.23;;;2.60;;
1390;SDS011;690;51.454;7.194;2023-03-13T04:00:02;9.70;;;2.83;;
1390;SDS011;690;51.454;7.194;2023-03-13T04:02:31;5.53;;;2.43;;
1390;SDS011;690;51.454;7.194;2023-03-13T04:04:58;4.93;;;2.23;;
1390;SDS011;690;51.454;7.194;2023-03-13T04:07:26;6.27;;;2.73;;
1390;SDS011;690;51.454;7.194;2023-03-13T04:09:53;5.33;;;2.40;;
1390;SDS011;690;51.454;7.194;2023-03-13T04:12:20;4.20;;;2.50;;
1390;SDS011;690;51.454;7.194;2023-03-13T04:14:47;6.90;;;2.77;;
1390;SDS011;690;51.454;7.194;2023-03-13T04:17:14;4.17;;;2.40;;
1390;SDS011;690;51.454;7.194;2023-03-13T04:19:41;3.70;;;2.40;;
1390;SDS011;690;51.454;7.194;2023-03-13T04:22:08;7.47;;;2.83;;
1390;SDS011;690;51.454;7.194;2023-03-13T04:24:36;5.60;;;2.93;;
1390;SDS011;690;51.454;7.194;2023-03-13T04:27:03;3.57;;;2.37;;
1390;SDS011;690;51.454;7.194;2023-03-13T04:29:30;6.13;;;2.80;;
1390;SDS011;690;51.454;7.194;2023-03-13T04:31:57;6.30;;;3.03;;
1390;SDS011;690;51.454;7.194;2023-03-13T04:34:24;5.80;;;2.40;;
1390;SDS011;690;51.454;7.194;2023-03-13T04:36:51;5.27;;;2.33;;
1390;SDS011;690;51.454;7.194;2023-03-13T04:39:18;3.73;;;3.00;;
1390;SDS011;690;51.454;7.194;2023-03-13T04:41:50;3.20;;;2.30;;
1390;SDS011;690;51.454;7.194;2023-03-13T04:44:17;6.27;;;2.83;;
1390;SDS011;690;51.454;7.194;2023-03-13T04:46:44;5.33;;;2.60;;
1390;SDS011;690;51.454;7.194;2023-03-13T04:49:12;3.83;;;2.33;;
1390;SDS011;690;51.454;7.194;2023-03-13T04:51:39;4.13;;;2.60;;
1390;SDS011;690;51.454;7.194;2023-03-13T04:54:06;4.00;;;2.53;;
1390;SDS011;690;51.454;7.194;2023-03-13T04:56:33;2.70;;;2.50;;
1390;SDS011;690;51.454;7.194;2023-03-13T04:59:01;3.73;;;2.90;;
1390;SDS011;690;51.454;7.194;2023-03-13T05:01:28;3.53;;;2.23;;
1390;SDS011;690;51.454;7.194;2023-03-13T05:03:56;5.87;;;2.37;;
1390;SDS011;690;51.454;7.194;2023-03-13T05:06:23;8.07;;;2.60;;
1390;SDS011;690;51.454;7.194;2023-03-13T05:08:50;4.00;;;2.70;;
1390;SDS011;690;51.454;7.194;2023-03-13T05:11:17;2.43;;;2.23;;
1390;SDS011;690;51.454;7.194;2023-03-13T05:13:44;4.27;;;2.43;;
1390;SDS011;690;51.454;7.194;2023-03-13T05:16:12;4.53;;;2.53;;
1390;SDS011;690;51.454;7.194;2023-03-13T05:18:38;2.53;;;2.20;;
1390;SDS011;690;51.454;7.194;2023-03-13T05:21:05;4.80;;;2.60;;
1390;SDS011;690;51.454;7.194;2023-03-13T05:23:33;3.20;;;2.37;;
1390;SDS011;690;51.454;7.194;2023-03-13T05:26:00;4.37;;;2.40;;
1390;SDS011;690;51.454;7.194;2023-03-13T05:28:27;3.17;;;2.40;;
1390;SDS011;690;51.454;7.194;2023-03-13T05:30:54;3.70;;;2.33;;
1390;SDS011;690;51.454;7.194;2023-03-13T05:33:22;2.10;;;1.90;;
1390;SDS011;690;51.454;7.194;2023-03-13T05:35:49;4.47;;;2.20;;
1390;SDS011;690;51.454;7.194;2023-03-13T05:38:16;3.60;;;2.20;;
1390;SDS011;690;51.454;7.194;2023-03-13T05:40:43;2.73;;;2.30;;
1390;SDS011;690;51.454;7.194;2023-03-13T05:43:09;3.73;;;2.20;;
1390;SDS011;690;51.454;7.194;2023-03-13T05:45:37;2.87;;;2.27;;
1390;SDS011;690;51.454;7.194;2023-03-13T05:48:04;3.60;;;2.47;;
1390;SDS011;690;51.454;7.194;2023-03-13T05:50:32;2.33;;;1.90;;
1390;SDS011;690;51.454;7.194;2023-03-13T05:52:59;4.27;;;2.50;;
1390;SDS011;690;51.454;7.194;2023-03-13T05:55:26;4.43;;;2.80;;
1390;SDS011;690;51.454;7.194;2023-03-13T05:57:53;2.90;;;2.40;;
1390;SDS011;690;51.454;7.194;2023-03-13T06:00:20;4.60;;;2.20;;
1390;SDS011;690;51.454;7.194;2023-03-13T06:02:47;4.10;;;2.33;;
1390;SDS011;690;51.454;7.194;2023-03-13T06:05:14;4.40;;;2.73;;
1390;SDS011;690;51.454;7.194;2023-03-13T06:07:42;3.50;;;2.10;;
1390;SDS011;690;51.454;7.194;2023-03-13T06:10:09;4.20;;;2.77;;
1390;SDS011;690;51.454;7.194;2023-03-13T06:12:37;6.53;;;3.20;;
1390;SDS011;690;51.454;7.194;2023-03-13T06:15:04;3.27;;;2.73;;
1390;SDS011;690;51.454;7.194;2023-03-13T06:17:33;2.73;;;2.53;;
1390;SDS011;690;51.454;7.194;2023-03-13T06:20:00;3.63;;;2.80;;
1390;SDS011;690;51.454;7.194;2023-03-13T06:22:29;5.63;;;2.50;;
1390;SDS011;690;51.454;7.194;2023-03-13T06:24:57;2.93;;;2.60;;
1390;SDS011;690;51.454;7.194;2023-03-13T06:27:24;5.57;;;2.80;;
1390;SDS011;690;51.454;7.194;2023-03-13T06:29:51;4.17;;;2.97;;
1390;SDS011;690;51.454;7.194;2023-03-13T06:32:18;6.97;;;3.10;;
1390;SDS011;690;51.454;7.194;2023-03-13T06:34:44;3.60;;;3.03;;
1390;SDS011;690;51.454;7.194;2023-03-13T06:37:11;5.27;;;2.97;;
1390;SDS011;690;51.454;7.194;2023-03-13T06:39:38;3.10;;;2.80;;
1390;SDS011;690;51.454;7.194;2023-03-13T06:42:07;5.53;;;3.83;;
1390;SDS011;690;51.454;7.194;2023-03-13T06:44:33;4.20;;;2.77;;
1390;SDS011;690;51.454;7.194;2023-03-13T06:47:00;4.20;;;2.13;;
1390;SDS011;690;51.454;7.194;2023-03-13T06:49:27;3.53;;;2.00;;
1390;SDS011;690;51.454;7.194;2023-03-13T06:51:55;2.53;;;2.23;;
1390;SDS011;690;51.454;7.194;2023-03-13T06:54:23;5.80;;;2.33;;
1390;SDS011;690;51.454;7.194;2023-03-13T06:56:50;3.37;;;1.97;;
1390;SDS011;690;51.454;7.194;2023-03-13T06:59:18;1.80;;;1.70;;
1390;SDS011;690;51.454;7.194;2023-03-13T07:01:45;4.80;;;2.40;;
1390;SDS011;690;51.454;7.194;2023-03-13T07:04:12;2.83;;;2.10;;
1390;SDS011;690;51.454;7.194;2023-03-13T07:06:40;3.80;;;2.10;;
1390;SDS011;690;51.454;7.194;2023-03-13T07:09:07;3.20;;;2.20;;
1390;SDS011;690;51.454;7.194;2023-03-13T07:11:34;4.27;;;1.87;;
1390;SDS011;690;51.454;7.194;2023-03-13T07:14:01;4.93;;;2.43;;
1390;SDS011;690;51.454;7.194;2023-03-13T07:16:30;5.13;;;2.13;;
1390;SDS011;690;51.454;7.194;2023-03-13T07:18:57;5.00;;;2.10;;
1390;SDS011;690;51.454;7.194;2023-03-13T07:21:23;4.53;;;2.40;;
1390;SDS011;690;51.454;7.194;2023-03-13T07:23:51;3.67;;;2.20;;
1390;SDS011;690;51.454;7.194;2023-03-13T07:26:18;4.43;;;2.27;;
1390;SDS011;690;51.454;7.194;2023-03-13T07:28:45;4.60;;;2.30;;
1390;SDS011;690;51.454;7.194;2023-03-13T07:31:13;7.43;;;2.90;;
1390;SDS011;690;51.454;7.194;2023-03-13T07:33:42;5.10;;;2.20;;
1390;SDS011;690;51.454;7.194;2023-03-13T07:36:10;7.13;;;2.60;;
1390;SDS011;690;51.454;7.194;2023-03-13T07:38:38;4.37;;;2.67;;
1390;SDS011;690;51.454;7.194;2023-03-13T07:41:05;3.70;;;2.40;;
1390;SDS011;690;51.454;7.194;2023-03-13T07:43:32;6.00;;;3.03;;
1390;SDS011;690;51.454;7.194;2023-03-13T07:45:59;4.47;;;2.60;;
1390;SDS011;690;51.454;7.194;2023-03-13T07:48:28;4.00;;;2.47;;
1390;SDS011;690;51.454;7.194;2023-03-13T07:50:57;5.30;;;2.50;;
1390;SDS011;690;51.454;7.194;2023-03-13T07:53:24;5.40;;;2.43;;
1390;SDS011;690;51.454;7.194;2023-03-13T07:55:53;6.40;;;2.50;;
1390;SDS011;690;51.454;7.194;2023-03-13T07:58:21;4.00;;;1.90;;
1390;SDS011;690;51.454;7.194;2023-03-13T08:00:48;3.83;;;2.20;;
1390;SDS011;690;51.454;7.194;2023-03-13T08:03:15;6.50;;;2.80;;
1390;SDS011;690;51.454;7.194;2023-03-13T08:05:42;5.10;;;2.27;;
1390;SDS011;690;51.454;7.194;2023-03-13T08:08:11;7.77;;;2.00;;
1390;SDS011;690;51.454;7.194;2023-03-13T08:10:38;5.50;;;2.60;;
1390;SDS011;690;51.454;7.194;2023-03-13T08:13:05;6.67;;;2.00;;
1390;SDS011;690;51.454;7.194;2023-03-13T08:15:32;6.90;;;3.40;;
1390;SDS011;690;51.454;7.194;2023-03-13T08:17:58;6.87;;;2.67;;
1390;SDS011;690;51.454;7.194;2023-03-13T08:20:25;3.80;;;2.30;;
1390;SDS011;690;51.454;7.194;2023-03-13T08:22:54;4.17;;;2.00;;
1390;SDS011;690;51.454;7.194;2023-03-13T08:25:23;5.23;;;2.70;;
1390;SDS011;690;51.454;7.194;2023-03-13T08:27:50;5.00;;;2.57;;
1390;SDS011;690;51.454;7.194;2023-03-13T08:30:17;7.60;;;3.00;;
1390;SDS011;690;51.454;7.194;2023-03-13T08:32:44;8.20;;;2.63;;
1390;SDS011;690;51.454;7.194;2023-03-13T08:35:11;5.50;;;2.47;;
1390;SDS011;690;51.454;7.194;2023-03-13T08:37:38;5.90;;;3.67;;
1390;SDS011;690;51.454;7.194;2023-03-13T08:40:05;7.70;;;2.70;;
1390;SDS011;690;51.454;7.194;2023-03-13T08:42:37;6.23;;;2.60;;
1390;SDS011;690;51.454;7.194;2023-03-13T08:45:05;7.30;;;2.83;;
1390;SDS011;690;51.454;7.194;2023-03-13T08:47:33;9.33;;;2.03;;
1390;SDS011;690;51.454;7.194;2023-03-13T08:50:00;6.87;;;2.70;;
1390;SDS011;690;51.454;7.194;2023-03-13T08:52:27;4.73;;;2.60;;
1390;SDS011;690;51.454;7.194;2023-03-13T08:54:54;5.10;;;2.50;;
1390;SDS011;690;51.454;7.194;2023-03-13T08:57:21;6.10;;;2.37;;
1390;SDS011;690;51.454;7.194;2023-03-13T08:59:49;5.83;;;2.50;;
1390;SDS011;690;51.454;7.194;2023-03-13T09:02:16;7.17;;;2.57;;
1390;SDS011;690;51.454;7.194;2023-03-13T09:04:45;7.40;;;2.60;;
1390;SDS011;690;51.454;7.194;2023-03-13T09:07:13;7.17;;;3.00;;
1390;SDS011;690;51.454;7.194;2023-03-13T09:09:40;5.30;;;2.27;;
1390;SDS011;690;51.454;7.194;2023-03-13T09:12:08;7.00;;;2.77;;
1390;SDS011;690;51.454;7.194;2023-03-13T09:14:35;3.50;;;2.40;;
1390;SDS011;690;51.454;7.194;2023-03-13T09:17:03;5.67;;;2.93;;
1390;SDS011;690;51.454;7.194;2023-03-13T09:19:31;3.70;;;2.93;;
1390;SDS011;690;51.454;7.194;2023-03-13T09:21:58;5.07;;;2.60;;
1390;SDS011;690;51.454;7.194;2023-03-13T09:24:24;4.27;;;2.60;;
1390;SDS011;690;51.454;7.194;2023-03-13T09:26:52;5.63;;;2.53;;
1390;SDS011;690;51.454;7.194;2023-03-13T09:29:18;6.67;;;2.80;;
1390;SDS011;690;51.454;7.194;2023-03-13T09:31:45;5.23;;;2.60;;
1390;SDS011;690;51.454;7.194;2023-03-13T09:34:13;9.00;;;3.40;;
1390;SDS011;690;51.454;7.194;2023-03-13T09:36:40;3.10;;;2.07;;
1390;SDS011;690;51.454;7.194;2023-03-13T09:39:07;5.30;;;2.93;;
1390;SDS011;690;51.454;7.194;2023-03-13T09:41:35;6.20;;;2.80;;
1390;SDS011;690;51.454;7.194;2023-03-13T09:44:09;8.93;;;2.50;;
1390;SDS011;690;51.454;7.194;2023-03-13T09:46:43;7.30;;;2.40;;
1390;SDS011;690;51.454;7.194;2023-03-13T09:49:17;5.43;;;2.47;;
1390;SDS011;690;51.454;7.194;2023-03-13T09:51:52;4.00;;;2.70;;
1390;SDS011;690;51.454;7.194;2023-03-13T09:54:25;14.93;;;3.30;;
1390;SDS011;690;51.454;7.194;2023-03-13T09:56:57;5.37;;;2.60;;
1390;SDS011;690;51.454;7.194;2023-03-13T09:59:31;5.53;;;3.13;;
1390;SDS011;690;51.454;7.194;2023-03-13T10:02:03;4.63;;;2.90;;
1390;SDS011;690;51.454;7.194;2023-03-13T10:04:43;3.03;;;2.23;;
1390;SDS011;690;51.454;7.194;2023-03-13T10:07:14;4.33;;;2.30;;
1390;SDS011;690;51.454;7.194;2023-03-13T10:09:41;4.43;;;2.20;;
1390;SDS011;690;51.454;7.194;2023-03-13T10:12:11;18.33;;;13.00;;
1390;SDS011;690;51.454;7.194;2023-03-13T10:14:43;5.63;;;2.80;;
1390;SDS011;690;51.454;7.194;2023-03-13T10:17:21;8.50;;;3.87;;
1390;SDS011;690;51.454;7.194;2023-03-13T10:19:57;4.20;;;2.60;;
1390;SDS011;690;51.454;7.194;2023-03-13T10:22:26;5.00;;;2.70;;
1390;SDS011;690;51.454;7.194;2023-03-13T10:24:57;3.83;;;2.40;;
1390;SDS011;690;51.454;7.194;2023-03-13T10:27:27;7.67;;;2.60;;
1390;SDS011;690;51.454;7.194;2023-03-13T10:29:54;3.20;;;2.40;;
1390;SDS011;690;51.454;7.194;2023-03-13T10:32:21;7.53;;;2.50;;
1390;SDS011;690;51.454;7.194;2023-03-13T10:34:49;3.60;;;2.40;;
1390;SDS011;690;51.454;7.194;2023-03-13T10:37:21;3.87;;;2.40;;
1390;SDS011;690;51.454;7.194;2023-03-13T10:39:50;5.00;;;2.40;;
1390;SDS011;690;51.454;7.194;2023-03-13T10:42:19;5.73;;;2.47;;
1390;SDS011;690;51.454;7.194;2023-03-13T10:44:49;5.20;;;2.70;;
1390;SDS011;690;51.454;7.194;2023-03-13T10:47:23;2.50;;;2.30;;
1390;SDS011;690;51.454;7.194;2023-03-13T10:49:50;2.67;;;1.87;;
1390;SDS011;690;51.454;7.194;2023-03-13T10:52:29;3.60;;;1.90;;
1390;SDS011;690;51.454;7.194;2023-03-13T10:54:59;5.57;;;2.40;;
1390;SDS011;690;51.454;7.194;2023-03-13T10:57:28;6.40;;;2.03;;
1390;SDS011;690;51.454;7.194;2023-03-13T10:59:56;6.00;;;2.50;;
1390;SDS011;690;51.454;7.194;2023-03-13T11:02:25;3.80;;;2.20;;
1390;SDS011;690;51.454;7.194;2023-03-13T11:04:56;4.23;;;1.93;;
1390;SDS011;690;51.454;7.194;2023-03-13T11:07:29;3.47;;;1.90;;
1390;SDS011;690;51.454;7.194;2023-03-13T11:10:00;2.73;;;1.47;;
1390;SDS011;690;51.454;7.194;2023-03-13T11:12:32;4.07;;;2.17;;
1390;SDS011;690;51.454;7.194;2023-03-13T11:15:00;7.20;;;1.70;;
1390;SDS011;690;51.454;7.194;2023-03-13T11:17:29;2.40;;;1.53;;
1390;SDS011;690;51.454;7.194;2023-03-13T11:20:13;4.30;;;1.33;;
1390;SDS011;690;51.454;7.194;2023-03-13T11:22:52;2.23;;;1.53;;
1390;SDS011;690;51.454;7.194;2023-03-13T11:25:36;5.03;;;1.63;;
1390;SDS011;690;51.454;7.194;2023-03-13T11:28:19;6.90;;;1.80;;
1390;SDS011;690;51.454;7.194;2023-03-13T11:30:59;2.10;;;1.63;;
1390;SDS011;690;51.454;7.194;2023-03-13T11:33:37;4.20;;;1.30;;
1390;SDS011;690;51.454;7.194;2023-03-13T11:36:17;2.73;;;1.53;;
1390;SDS011;690;51.454;7.194;2023-03-13T11:38:49;2.10;;;1.30;;
1390;SDS011;690;51.454;7.194;2023-03-13T11:41:30;1.50;;;1.40;;
1390;SDS011;690;51.454;7.194;2023-03-13T11:44:14;9.00;;;2.53;;
1390;SDS011;690;51.454;7.194;2023-03-13T11:46:57;5.37;;;1.30;;
1390;SDS011;690;51.454;7.194;2023-03-13T11:49:50;1.13;;;1.00;;
1390;SDS011;690;51.454;7.194;2023-03-13T11:52:34;4.40;;;1.47;;
1390;SDS011;690;51.454;7.194;2023-03-13T11:55:21;5.70;;;1.60;;
1390;SDS011;690;51.454;7.194;2023-03-13T11:58:08;1.90;;;1.43;;
1390;SDS011;690;51.454;7.194;2023-03-13T12:00:49;1.60;;;0.87;;
1390;SDS011;690;51.454;7.194;2023-03-13T12:03:25;1.63;;;1.00;;
1390;SDS011;690;51.454;7.194;2023-03-13T12:05:59;4.23;;;1.57;;
1390;SDS011;690;51.454;7.194;2023-03-13T12:08:29;3.20;;;1.10;;
1390;SDS011;690;51.454;7.194;2023-03-13T12:11:05;2.90;;;1.27;;
1390;SDS011;690;51.454;7.194;2023-03-13T12:13:39;2.50;;;1.40;;
1390;SDS011;690;51.454;7.194;2023-03-13T12:16:08;2.30;;;1.03;;
1390;SDS011;690;51.454;7.194;2023-03-13T12:18:39;2.23;;;1.10;;
1390;SDS011;690;51.454;7.194;2023-03-13T12:21:10;1.27;;;0.70;;
1390;SDS011;690;51.454;7.194;2023-03-13T12:23:44;3.67;;;1.20;;
1390;SDS011;690;51.454;7.194;2023-03-13T12:26:15;2.80;;;1.33;;
1390;SDS011;690;51.454;7.194;2023-03-13T12:28:46;1.43;;;1.17;;
1390;SDS011;690;51.454;7.194;2023-03-13T12:31:28;2.00;;;1.10;;
1390;SDS011;690;51.454;7.194;2023-03-13T12:34:02;6.73;;;1.50;;
1390;SDS011;690;51.454;7.194;2023-03-13T12:36:37;4.53;;;1.20;;
1390;SDS011;690;51.454;7.194;2023-03-13T12:39:11;3.50;;;1.30;;
1390;SDS011;690;51.454;7.194;2023-03-13T12:41:49;2.93;;;1.30;;
1390;SDS011;690;51.454;7.194;2023-03-13T12:44:31;2.70;;;1.00;;
1390;SDS011;690;51.454;7.194;2023-03-13T12:47:01;2.30;;;1.23;;
1390;SDS011;690;51.454;7.194;2023-03-13T12:52:39;2.30;;;1.40;;
1390;SDS011;690;51.454;7.194;2023-03-13T12:55:32;2.43;;;1.23;;
1390;SDS011;690;51.454;7.194;2023-03-13T12:58:12;7.83;;;1.37;;
1390;SDS011;690;51.454;7.194;2023-03-13T13:00:50;2.23;;;1.10;;
1390;SDS011;690;51.454;7.194;2023-03-13T13:03:22;2.97;;;1.00;;
1390;SDS011;690;51.454;7.194;2023-03-13T13:05:58;2.30;;;1.10;;
1390;SDS011;690;51.454;7.194;2023-03-13T13:08:32;5.80;;;1.23;;
1390;SDS011;690;51.454;7.194;2023-03-13T13:17:46;6.43;;;2.13;;
1390;SDS011;690;51.454;7.194;2023-03-13T13:20:29;2.37;;;1.37;;
1390;SDS011;690;51.454;7.194;2023-03-13T13:41:20;1.73;;;1.10;;
1390;SDS011;690;51.454;7.194;2023-03-13T13:46:47;2.40;;;1.20;;
1390;SDS011;690;51.454;7.194;2023-03-13T13:49:16;3.63;;;1.00;;
1390;SDS011;690;51.454;7.194;2023-03-13T13:54:54;1.27;;;0.80;;
1390;SDS011;690;51.454;7.194;2023-03-13T13:57:23;2.70;;;1.40;;
1390;SDS011;690;51.454;7.194;2023-03-13T13:59:52;5.67;;;1.27;;
1390;SDS011;690;51.454;7.194;2023-03-13T14:02:23;1.30;;;1.10;;
1390;SDS011;690;51.454;7.194;2023-03-13T14:05:00;4.20;;;1.30;;
1390;SDS011;690;51.454;7.194;2023-03-13T14:07:30;2.50;;;1.37;;
1390;SDS011;690;51.454;7.194;2023-03-13T14:10:11;1.87;;;1.10;;
1390;SDS011;690;51.454;7.194;2023-03-13T14:12:46;1.13;;;1.03;;
1390;SDS011;690;51.454;7.194;2023-03-13T14:15:17;2.00;;;1.10;;
1390;SDS011;690;51.454;7.194;2023-03-13T14:17:46;2.57;;;0.93;;
1390;SDS011;690;51.454;7.194;2023-03-13T14:20:27;4.20;;;1.27;;
1390;SDS011;690;51.454;7.194;2023-03-13T14:22:57;5.10;;;1.20;;
1390;SDS011;690;51.454;7.194;2023-03-13T14:25:25;2.00;;;0.90;;
1390;SDS011;690;51.454;7.194;2023-03-13T14:27:53;8.90;;;1.40;;
1390;SDS011;690;51.454;7.194;2023-03-13T14:30:21;1.63;;;1.03;;
1390;SDS011;690;51.454;7.194;2023-03-13T14:32:49;4.60;;;1.30;;
1390;SDS011;690;51.454;7.194;2023-03-13T14:35:18;1.50;;;0.90;;
1390;SDS011;690;51.454;7.194;2023-03-13T14:37:48;2.57;;;1.13;;
1390;SDS011;690;51.454;7.194;2023-03-13T14:40:20;4.90;;;1.10;;
1390;SDS011;690;51.454;7.194;2023-03-13T14:42:50;3.77;;;1.43;;
1390;SDS011;690;51.454;7.194;2023-03-13T14:45:20;4.63;;;2.17;;
1390;SDS011;690;51.454;7.194;2023-03-13T14:47:49;3.90;;;1.60;;
1390;SDS011;690;51.454;7.194;2023-03-13T14:50:17;2.13;;;1.50;;
1390;SDS011;690;51.454;7.194;2023-03-13T14:52:49;3.80;;;1.60;;
1390;SDS011;690;51.454;7.194;2023-03-13T14:55:27;4.50;;;1.53;;
1390;SDS011;690;51.454;7.194;2023-03-13T14:57:57;9.43;;;2.03;;
1390;SDS011;690;51.454;7.194;2023-03-13T15:03:12;9.53;;;1.30;;
1390;SDS011;690;51.454;7.194;2023-03-13T15:06:04;5.50;;;1.97;;
1390;SDS011;690;51.454;7.194;2023-03-13T15:08:40;3.47;;;1.50;;
1390;SDS011;690;51.454;7.194;2023-03-13T15:11:16;4.50;;;1.53;;
1390;SDS011;690;51.454;7.194;2023-03-13T15:13:50;2.83;;;2.00;;
1390;SDS011;690;51.454;7.194;2023-03-13T15:16:18;5.43;;;1.57;;
1390;SDS011;690;51.454;7.194;2023-03-13T15:18:46;4.97;;;2.00;;
1390;SDS011;690;51.454;7.194;2023-03-13T15:21:21;2.60;;;1.50;;
1390;SDS011;690;51.454;7.194;2023-03-13T15:23:51;4.30;;;2.07;;
1390;SDS011;690;51.454;7.194;2023-03-13T15:26:19;5.57;;;1.93;;
1390;SDS011;690;51.454;7.194;2023-03-13T15:28:47;3.70;;;1.83;;
1390;SDS011;690;51.454;7.194;2023-03-13T15:31:13;4.10;;;1.60;;
1390;SDS011;690;51.454;7.194;2023-03-13T15:33:41;4.47;;;1.80;;
1390;SDS011;690;51.454;7.194;2023-03-13T15:36:08;2.33;;;1.50;;
1390;SDS011;690;51.454;7.194;2023-03-13T15:38:35;3.03;;;1.50;;
1390;SDS011;690;51.454;7.194;2023-03-13T15:41:04;1.80;;;1.60;;
1390;SDS011;690;51.454;7.194;2023-03-13T15:43:33;4.43;;;1.40;;
1390;SDS011;690;51.454;7.194;2023-03-13T15:46:00;1.80;;;1.20;;
1390;SDS011;690;51.454;7.194;2023-03-13T15:48:27;1.37;;;1.27;;
1390;SDS011;690;51.454;7.194;2023-03-13T15:50:56;2.07;;;1.47;;
1390;SDS011;690;51.454;7.194;2023-03-13T15:53:25;2.83;;;1.03;;
1390;SDS011;690;51.454;7.194;2023-03-13T15:55:54;1.60;;;1.40;;
1390;SDS011;690;51.454;7.194;2023-03-13T15:58:23;1.53;;;1.00;;
1390;SDS011;690;51.454;7.194;2023-03-13T16:00:50;1.43;;;1.30;;
1390;SDS011;690;51.454;7.194;2023-03-13T16:03:18;2.73;;;1.20;;
1390;SDS011;690;51.454;7.194;2023-03-13T16:05:46;6.10;;;1.40;;
1390;SDS011;690;51.454;7.194;2023-03-13T16:08:15;1.93;;;1.00;;
1390;SDS011;690;51.454;7.194;2023-03-13T16:10:43;2.20;;;1.57;;
1390;SDS011;690;51.454;7.194;2023-03-13T16:13:10;2.90;;;1.50;;
1390;SDS011;690;51.454;7.194;2023-03-13T16:15:38;4.20;;;1.37;;
1390;SDS011;690;51.454;7.194;2023-03-13T16:18:05;3.07;;;1.50;;